Crestmore, California
Current Conditions -  °F | °C
As of 12:20 AM on Saturday 01 Nov 2014 (Local Time) from KRAL Reporting Station
Overcast Overcast  
Wind Chill: 61°   Ceiling: 2200
Heat Index: 61°   Visibility: 10mi
Dew Point: 58°   Wind: 0mph
Humidity: 90%   Direction: NA
Pressure: 29.86"   Gusts: NA
Location:  34.0579°N, 117.395°W
Report Text: KRAL 010720Z AUTO 00000KT 10SM BKN022 BKN028 OVC070 16/14 A2986 RMK AO2 T01610144
Loading
Personal Weather Stations






























Interactive Weather Map
Tropical Storm Tracking
New forecast layout! Learn more

10-Day Weather Forecast

Advertisements
Track Severe Weather on mobile